createdAt,value
2023-10-02T00:00:00.000Z,15.28
2023-10-02T00:15:00.000Z,15.15
2023-10-02T00:30:00.000Z,14.88
2023-10-02T00:45:00.000Z,14.7
2023-10-02T01:00:00.000Z,14.52
2023-10-02T01:15:00.000Z,14.34
2023-10-02T01:30:00.000Z,14.32
2023-10-02T01:45:00.000Z,14.37
2023-10-02T02:00:00.000Z,14.26
2023-10-02T02:15:00.000Z,14.18
2023-10-02T02:30:00.000Z,13.99
2023-10-02T02:45:00.000Z,13.83
2023-10-02T03:00:00.000Z,14.17
2023-10-02T03:15:00.000Z,14.11
2023-10-02T03:30:00.000Z,14.04
2023-10-02T03:45:00.000Z,13.94
2023-10-02T04:00:00.000Z,14
2023-10-02T04:15:00.000Z,14.02
2023-10-02T04:30:00.000Z,13.93
2023-10-02T04:45:00.000Z,13.87
2023-10-02T05:00:00.000Z,13.82
2023-10-02T05:15:00.000Z,13.98
2023-10-02T05:30:00.000Z,14.4
2023-10-02T05:45:00.000Z,16.52
2023-10-02T06:00:00.000Z,18.64
2023-10-02T06:15:00.000Z,20.28
2023-10-02T06:30:00.000Z,21.6
2023-10-02T06:45:00.000Z,22.47
2023-10-02T07:00:00.000Z,23.72
2023-10-02T07:15:00.000Z,24.98
2023-10-02T07:30:00.000Z,25.77
2023-10-02T07:45:00.000Z,26.53
2023-10-02T08:00:00.000Z,26.83
2023-10-02T08:15:00.000Z,27.67
2023-10-02T08:30:00.000Z,28.33
2023-10-02T08:45:00.000Z,28.97
2023-10-02T09:00:00.000Z,29.11
2023-10-02T09:15:00.000Z,29.5
2023-10-02T09:30:00.000Z,29.86
2023-10-02T09:45:00.000Z,29.69
2023-10-02T10:00:00.000Z,29.49
2023-10-02T10:15:00.000Z,29.07
2023-10-02T10:30:00.000Z,28.57
2023-10-02T10:45:00.000Z,28.58
2023-10-02T11:00:00.000Z,28.16
2023-10-02T11:15:00.000Z,27.82
2023-10-02T11:30:00.000Z,27.71
2023-10-02T11:45:00.000Z,27.84
2023-10-02T12:00:00.000Z,27.88
2023-10-02T12:15:00.000Z,27.06
2023-10-02T12:30:00.000Z,26.37
2023-10-02T12:45:00.000Z,26.2
2023-10-02T13:00:00.000Z,26.13
2023-10-02T13:15:00.000Z,26.16
2023-10-02T13:30:00.000Z,26.13
2023-10-02T13:45:00.000Z,26.03
2023-10-02T14:00:00.000Z,25.99
2023-10-02T14:15:00.000Z,25.78
2023-10-02T14:30:00.000Z,25.65
2023-10-02T14:45:00.000Z,25.62
2023-10-02T15:00:00.000Z,25.58
2023-10-02T15:15:00.000Z,25.49
2023-10-02T15:30:00.000Z,25.19
2023-10-02T15:45:00.000Z,24.9
2023-10-02T16:00:00.000Z,24.48
2023-10-02T16:15:00.000Z,23.83
2023-10-02T16:30:00.000Z,22.98
2023-10-02T16:45:00.000Z,22.27
2023-10-02T17:00:00.000Z,21.82
2023-10-02T17:15:00.000Z,21.32
2023-10-02T17:30:00.000Z,20.96
2023-10-02T17:45:00.000Z,20.71
2023-10-02T18:00:00.000Z,20.33
2023-10-02T18:15:00.000Z,20.21
2023-10-02T18:30:00.000Z,19.97
2023-10-02T18:45:00.000Z,19.82
2023-10-02T19:00:00.000Z,19.69
2023-10-02T19:15:00.000Z,19.44
2023-10-02T19:30:00.000Z,19.17
2023-10-02T19:45:00.000Z,18.94
2023-10-02T20:00:00.000Z,18.32
2023-10-02T20:15:00.000Z,17.77
2023-10-02T20:30:00.000Z,17.59
2023-10-02T20:45:00.000Z,17.29
2023-10-02T21:00:00.000Z,17
2023-10-02T21:15:00.000Z,16.86
2023-10-02T21:30:00.000Z,16.64
2023-10-02T21:45:00.000Z,16.58
2023-10-02T22:00:00.000Z,16.6
2023-10-02T22:15:00.000Z,16.27
2023-10-02T22:30:00.000Z,15.86
2023-10-02T22:45:00.000Z,15.58
2023-10-02T23:00:00.000Z,15.45
2023-10-02T23:15:00.000Z,15.35
2023-10-02T23:30:00.000Z,15.31
2023-10-02T23:45:00.000Z,15.3
